createdAt,value
2019-01-22T00:01:13.900Z,32.50
2019-01-22T00:03:44.076Z,32.60
2019-01-22T00:06:15.103Z,32.65
2019-01-22T00:08:45.504Z,31.15
2019-01-22T00:11:15.533Z,32.67
2019-01-22T00:13:46.231Z,32.85
2019-01-22T00:16:16.221Z,34.38
2019-01-22T00:18:46.653Z,31.10
2019-01-22T00:21:16.871Z,32.73
2019-01-22T00:23:47.351Z,31.93
2019-01-22T00:26:17.553Z,31.25
2019-01-22T00:28:47.510Z,32.73
2019-01-22T00:31:17.443Z,28.65
2019-01-22T00:33:47.596Z,34.35
2019-01-22T00:36:17.960Z,31.35
2019-01-22T00:38:48.709Z,32.63
2019-01-22T00:41:18.714Z,32.33
2019-01-22T00:43:48.879Z,33.80
2019-01-22T00:46:19.193Z,30.17
2019-01-22T00:48:49.395Z,31.05
2019-01-22T00:51:19.537Z,33.92
2019-01-22T00:53:49.448Z,35.48
2019-01-22T00:56:19.425Z,36.40
2019-01-22T00:58:49.615Z,36.53
2019-01-22T01:01:19.571Z,35.63
2019-01-22T01:03:49.767Z,32.88
2019-01-22T01:06:20.092Z,35.45
2019-01-22T01:08:50.363Z,32.95
2019-01-22T01:15:12.830Z,33.28
2019-01-22T01:17:42.881Z,35.63
2019-01-22T01:20:15.727Z,34.85
2019-01-22T01:26:12.532Z,33.60
2019-01-22T01:28:42.449Z,37.50
2019-01-22T01:31:13.901Z,35.63
2019-01-22T01:33:44.050Z,35.40
2019-01-22T01:36:13.955Z,37.13
2019-01-22T01:38:44.123Z,34.25
2019-01-22T01:41:14.300Z,35.78
2019-01-22T01:43:44.210Z,38.80
2019-01-22T01:46:14.710Z,33.70
2019-01-22T01:48:44.863Z,35.03
2019-01-22T01:51:15.070Z,33.83
2019-01-22T01:53:44.978Z,35.92
2019-01-22T01:56:15.725Z,33.83
2019-01-22T01:58:45.645Z,36.25
2019-01-22T02:01:15.534Z,36.75
2019-01-22T02:03:45.922Z,39.35
2019-01-22T02:06:15.899Z,38.75
2019-01-22T02:08:45.778Z,36.75
2019-01-22T02:11:15.660Z,36.55
2019-01-22T02:13:55.349Z,36.80
2019-01-22T02:17:04.320Z,35.80
2019-01-22T02:20:15.346Z,37.15
2019-01-22T02:23:38.976Z,33.45
2019-01-22T02:27:02.951Z,34.83
2019-01-22T02:30:04.890Z,33.55
2019-01-22T02:33:24.170Z,36.53
2019-01-22T02:36:11.051Z,36.45
2019-01-22T02:39:11.637Z,34.73
2019-01-22T02:42:14.996Z,37.05
2019-01-22T02:45:24.217Z,32.10
2019-01-22T02:48:37.758Z,35.75
2019-01-22T02:52:12.571Z,34.60
2019-01-22T02:55:08.954Z,37.25
2019-01-22T02:58:16.469Z,35.10
2019-01-22T03:01:33.064Z,35.73
2019-01-22T03:04:23.718Z,31.40
2019-01-22T03:07:34.976Z,31.30
2019-01-22T03:10:27.877Z,34.80
2019-01-22T03:13:39.849Z,29.18
2019-01-22T03:17:02.052Z,31.15
2019-01-22T03:20:07.189Z,26.23
2019-01-22T03:23:30.862Z,25.70
2019-01-22T03:26:47.424Z,23.35
2019-01-22T03:30:01.287Z,21.42
2019-01-22T03:32:58.183Z,20.35
2019-01-22T03:36:25.169Z,22.73
2019-01-22T03:39:18.975Z,19.62
2019-01-22T03:42:29.534Z,21.82
2019-01-22T03:45:22.133Z,22.02
2019-01-22T03:48:42.521Z,18.55
2019-01-22T03:51:39.158Z,18.25
2019-01-22T03:54:54.004Z,17.52
2019-01-22T03:57:42.728Z,18.37
2019-01-22T04:04:04.166Z,16.67
2019-01-22T04:06:47.943Z,18.00
2019-01-22T04:09:32.074Z,16.32
2019-01-22T04:12:02.870Z,16.67
2019-01-22T04:14:33.105Z,15.83
2019-01-22T04:17:03.859Z,16.60
2019-01-22T04:19:33.769Z,20.12
2019-01-22T04:22:05.077Z,20.92
2019-01-22T04:24:50.678Z,15.53
2019-01-22T04:27:52.676Z,17.50
2019-01-22T04:30:49.443Z,18.50
2019-01-22T04:34:02.774Z,19.57
2019-01-22T04:37:39.273Z,17.90
2019-01-22T04:41:11.506Z,18.30
2019-01-22T04:44:21.716Z,18.23
2019-01-22T04:47:55.181Z,19.02
2019-01-22T04:51:23.975Z,17.50
2019-01-22T04:54:30.026Z,18.73
2019-01-22T04:57:41.309Z,17.00
2019-01-22T05:00:40.323Z,17.82
2019-01-22T05:03:40.955Z,15.85
2019-01-22T05:07:19.092Z,19.50
2019-01-22T05:10:43.275Z,18.45
2019-01-22T05:14:04.834Z,17.75
2019-01-22T05:17:18.232Z,18.20
2019-01-22T05:20:31.571Z,16.97
2019-01-22T05:23:38.418Z,18.40
2019-01-22T05:26:44.291Z,18.02
2019-01-22T05:30:16.497Z,17.62
2019-01-22T05:33:21.567Z,18.32
2019-01-22T05:36:04.328Z,19.95
2019-01-22T05:39:48.175Z,17.57
2019-01-22T05:43:06.187Z,18.10
2019-01-22T05:46:44.653Z,18.30
2019-01-22T05:49:43.370Z,19.87
2019-01-22T05:53:06.337Z,20.30
2019-01-22T05:55:41.196Z,18.23
2019-01-22T05:59:20.473Z,18.80
2019-01-22T06:06:13.381Z,17.30
2019-01-22T06:09:16.558Z,20.52
2019-01-22T06:12:41.130Z,19.48
2019-01-22T06:15:54.561Z,19.05
2019-01-22T06:19:17.865Z,18.70
2019-01-22T06:22:46.878Z,18.20
2019-01-22T06:25:36.228Z,17.75
2019-01-22T06:28:40.957Z,20.15
2019-01-22T06:31:53.345Z,20.82
2019-01-22T06:34:55.774Z,18.82
2019-01-22T06:38:01.485Z,18.35
2019-01-22T06:41:18.401Z,19.52
2019-01-22T06:44:34.668Z,21.27
2019-01-22T06:47:34.011Z,20.55
2019-01-22T06:50:59.649Z,20.55
2019-01-22T06:54:14.392Z,20.37
2019-01-22T06:57:40.315Z,23.70
2019-01-22T07:00:54.475Z,20.77
2019-01-22T07:04:09.400Z,20.43
2019-01-22T07:07:19.053Z,20.45
2019-01-22T07:10:34.756Z,22.45
2019-01-22T07:13:59.454Z,21.20
2019-01-22T07:17:19.503Z,21.33
2019-01-22T07:20:47.378Z,18.23
2019-01-22T07:23:28.376Z,17.37
2019-01-22T07:26:40.308Z,21.12
2019-01-22T07:29:56.202Z,18.15
2019-01-22T07:33:03.084Z,18.27
2019-01-22T07:35:49.419Z,20.62
2019-01-22T07:39:13.392Z,21.62
2019-01-22T07:42:07.020Z,18.12
2019-01-22T07:44:56.029Z,15.88
2019-01-22T07:48:04.967Z,14.53
2019-01-22T07:51:28.817Z,19.02
2019-01-22T07:54:45.808Z,15.23
2019-01-22T07:58:06.902Z,14.25
2019-01-22T08:02:04.795Z,15.30
2019-01-22T08:05:17.310Z,16.10
2019-01-22T08:08:34.386Z,16.70
2019-01-22T08:11:47.384Z,15.45
2019-01-22T08:14:50.440Z,15.03
2019-01-22T08:18:03.018Z,18.35
2019-01-22T08:27:23.007Z,16.80
2019-01-22T08:30:41.974Z,15.38
2019-01-22T08:34:07.034Z,15.13
2019-01-22T08:37:17.970Z,13.30
2019-01-22T08:40:42.870Z,14.98
2019-01-22T08:43:37.985Z,18.27
2019-01-22T08:47:07.498Z,16.02
2019-01-22T08:50:25.394Z,17.42
2019-01-22T08:53:14.324Z,16.97
2019-01-22T08:56:30.904Z,16.57
2019-01-22T09:00:00.979Z,18.15
2019-01-22T09:03:08.864Z,19.52
2019-01-22T09:06:30.621Z,14.23
2019-01-22T09:09:26.411Z,18.80
2019-01-22T09:12:28.073Z,22.00
2019-01-22T09:15:25.957Z,18.32
2019-01-22T09:18:34.094Z,16.75
2019-01-22T09:21:54.448Z,19.77
2019-01-22T09:24:44.057Z,17.70
2019-01-22T09:28:19.188Z,18.70
2019-01-22T09:30:59.168Z,19.23
2019-01-22T09:34:24.604Z,21.55
2019-01-22T09:37:34.363Z,18.00
2019-01-22T09:40:05.855Z,18.07
2019-01-22T09:42:36.087Z,16.75
2019-01-22T09:45:08.649Z,17.92
2019-01-22T09:47:38.844Z,16.75
2019-01-22T09:50:09.699Z,20.40
2019-01-22T09:52:39.919Z,18.85
2019-01-22T09:55:12.133Z,19.82
2019-01-22T09:57:42.866Z,19.62
2019-01-22T10:00:15.985Z,18.32
2019-01-22T10:02:45.920Z,20.62
2019-01-22T10:05:16.229Z,18.70
2019-01-22T10:07:46.137Z,17.57
2019-01-22T10:10:19.045Z,18.87
2019-01-22T10:12:49.258Z,15.03
2019-01-22T10:15:21.346Z,15.80
2019-01-22T10:17:51.311Z,17.05
2019-01-22T10:20:23.352Z,17.77
2019-01-22T10:22:53.404Z,14.53
2019-01-22T10:25:29.379Z,13.23
2019-01-22T10:27:55.440Z,16.60
2019-01-22T10:30:26.468Z,14.85
2019-01-22T10:32:56.365Z,15.08
2019-01-22T10:35:26.474Z,14.30
2019-01-22T10:37:56.769Z,13.70
2019-01-22T10:40:27.538Z,13.88
2019-01-22T10:42:58.087Z,15.23
2019-01-22T10:45:28.006Z,11.57
2019-01-22T10:47:58.265Z,12.35
2019-01-22T10:50:28.464Z,14.30
2019-01-22T10:52:58.542Z,13.40
2019-01-22T10:55:28.841Z,12.03
2019-01-22T10:57:58.813Z,14.25
2019-01-22T11:00:31.265Z,13.75
2019-01-22T11:03:01.799Z,13.18
2019-01-22T11:09:23.425Z,12.00
2019-01-22T11:19:00.380Z,10.40
2019-01-22T11:21:30.412Z,13.70
2019-01-22T11:24:00.794Z,12.95
2019-01-22T11:26:31.087Z,11.43
2019-01-22T11:29:01.240Z,14.60
2019-01-22T11:31:31.151Z,11.80
2019-01-22T11:34:01.196Z,14.15
2019-01-22T11:36:31.342Z,15.97
2019-01-22T11:39:01.284Z,14.70
2019-01-22T11:41:31.517Z,12.30
2019-01-22T11:44:01.934Z,12.03
2019-01-22T11:46:32.090Z,12.63
2019-01-22T11:49:01.982Z,13.30
2019-01-22T11:51:32.131Z,12.73
2019-01-22T11:54:02.065Z,13.10
2019-01-22T11:56:31.991Z,12.88
2019-01-22T11:59:02.167Z,12.43
2019-01-22T12:01:32.313Z,12.50
2019-01-22T12:04:02.511Z,12.67
2019-01-22T12:06:32.648Z,9.70
2019-01-22T12:09:04.326Z,11.38
2019-01-22T12:11:34.230Z,11.73
2019-01-22T12:14:04.373Z,12.03
2019-01-22T12:16:34.861Z,13.00
2019-01-22T12:19:04.864Z,11.97
2019-01-22T12:21:35.095Z,17.50
2019-01-22T12:24:05.888Z,13.37
2019-01-22T12:26:36.080Z,13.68
2019-01-22T12:29:06.702Z,14.03
2019-01-22T12:31:36.983Z,17.73
2019-01-22T12:34:07.354Z,13.37
2019-01-22T12:36:37.276Z,13.60
2019-01-22T12:39:09.533Z,12.47
2019-01-22T12:41:39.612Z,13.93
2019-01-22T12:44:10.684Z,14.97
2019-01-22T12:46:40.840Z,15.63
2019-01-22T12:49:11.961Z,13.50
2019-01-22T12:51:42.085Z,14.10
2019-01-22T12:54:12.352Z,13.25
2019-01-22T12:56:42.403Z,13.70
2019-01-22T12:59:12.353Z,13.23
2019-01-22T13:01:42.575Z,14.23
2019-01-22T13:04:13.148Z,14.40
2019-01-22T13:06:43.162Z,12.40
2019-01-22T13:09:13.107Z,14.57
2019-01-22T13:11:43.011Z,12.40
2019-01-22T13:14:16.442Z,14.40
2019-01-22T13:16:45.329Z,14.30
2019-01-22T13:19:15.220Z,15.17
2019-01-22T13:21:45.122Z,13.80
2019-01-22T13:24:15.051Z,14.03
2019-01-22T13:26:44.941Z,14.77
2019-01-22T13:40:37.945Z,14.90
2019-01-22T13:43:08.391Z,14.10
2019-01-22T13:45:38.872Z,15.10
2019-01-22T13:48:12.920Z,15.13
2019-01-22T13:50:42.811Z,15.47
2019-01-22T13:53:12.755Z,15.50
2019-01-22T13:55:42.716Z,14.47
2019-01-22T13:58:12.968Z,13.87
2019-01-22T14:00:42.981Z,15.57
2019-01-22T14:04:10.288Z,15.53
2019-01-22T14:06:40.475Z,16.00
2019-01-22T14:09:10.781Z,14.77
2019-01-22T14:11:40.791Z,14.97
2019-01-22T14:14:11.352Z,15.20
2019-01-22T14:16:41.338Z,14.03
2019-01-22T14:19:11.367Z,13.63
2019-01-22T14:21:41.861Z,16.48
2019-01-22T14:24:12.185Z,14.10
2019-01-22T14:26:42.670Z,15.07
2019-01-22T14:29:12.590Z,13.63
2019-01-22T14:31:42.728Z,15.20
2019-01-22T14:34:13.047Z,17.75
2019-01-22T14:36:43.293Z,16.50
2019-01-22T14:39:14.038Z,16.07
2019-01-22T14:41:44.441Z,14.03
2019-01-22T14:44:14.337Z,18.17
2019-01-22T14:46:44.249Z,17.17
2019-01-22T14:49:14.317Z,18.93
2019-01-22T14:51:44.810Z,17.00
2019-01-22T14:54:14.694Z,16.73
2019-01-22T14:56:44.589Z,17.07
2019-01-22T14:59:14.509Z,16.12
2019-01-22T15:01:44.738Z,17.45
2019-01-22T15:04:14.829Z,16.07
2019-01-22T15:06:44.811Z,16.30
2019-01-22T15:09:15.369Z,17.13
2019-01-22T15:11:45.471Z,20.27
2019-01-22T15:14:15.383Z,16.00
2019-01-22T15:16:45.312Z,19.25
2019-01-22T15:19:15.366Z,17.03
2019-01-22T15:21:45.697Z,18.82
2019-01-22T15:24:15.665Z,19.02
2019-01-22T15:26:46.128Z,18.23
2019-01-22T15:29:16.109Z,19.53
2019-01-22T15:31:46.014Z,17.25
2019-01-22T15:34:16.351Z,16.35
2019-01-22T15:36:46.617Z,17.35
2019-01-22T15:39:16.554Z,16.27
2019-01-22T15:41:46.480Z,20.43
2019-01-22T15:44:16.588Z,22.50
2019-01-22T15:46:46.773Z,21.35
2019-01-22T15:49:16.701Z,17.27
2019-01-22T15:51:46.652Z,16.90
2019-01-22T15:54:16.625Z,19.80
2019-01-22T15:56:47.345Z,19.60
2019-01-22T15:59:17.548Z,18.65
2019-01-22T16:01:47.946Z,20.32
2019-01-22T16:04:17.903Z,19.30
2019-01-22T16:06:48.061Z,20.40
2019-01-22T16:09:18.041Z,21.25
2019-01-22T16:11:48.266Z,17.25
2019-01-22T16:14:18.261Z,19.15
2019-01-22T16:16:48.886Z,18.45
2019-01-22T16:19:19.072Z,19.57
2019-01-22T16:21:48.976Z,19.45
2019-01-22T16:24:20.032Z,20.12
2019-01-22T16:26:53.443Z,21.17
2019-01-22T16:29:21.978Z,20.12
2019-01-22T16:31:51.879Z,18.92
2019-01-22T16:34:21.791Z,17.23
2019-01-22T16:36:51.749Z,17.92
2019-01-22T16:39:21.906Z,14.33
2019-01-22T16:41:51.960Z,18.40
2019-01-22T16:44:22.381Z,19.00
2019-01-22T16:46:52.594Z,17.10
2019-01-22T16:49:22.572Z,17.32
2019-01-22T16:51:52.482Z,18.85
2019-01-22T16:54:22.546Z,18.82
2019-01-22T16:56:52.808Z,18.82
2019-01-22T16:59:24.156Z,20.25
2019-01-22T17:01:54.226Z,19.75
2019-01-22T17:04:24.771Z,18.50
2019-01-22T17:06:54.808Z,18.70
2019-01-22T17:09:25.488Z,17.62
2019-01-22T17:11:55.752Z,20.25
2019-01-22T17:14:26.036Z,19.48
2019-01-22T17:16:56.020Z,19.87
2019-01-22T17:19:26.458Z,23.38
2019-01-22T17:21:56.511Z,18.95
2019-01-22T17:24:29.850Z,21.20
2019-01-22T17:26:59.975Z,20.72
2019-01-22T17:29:29.879Z,18.87
2019-01-22T17:32:17.848Z,14.20
2019-01-22T17:34:53.921Z,19.95
2019-01-22T17:37:23.891Z,20.75
2019-01-22T17:39:54.103Z,20.65
2019-01-22T17:42:24.598Z,15.68
2019-01-22T17:44:54.931Z,16.65
2019-01-22T17:47:25.553Z,18.95
2019-01-22T17:49:56.055Z,18.35
2019-01-22T17:52:26.285Z,19.92
2019-01-22T17:54:58.101Z,19.25
2019-01-22T17:57:28.129Z,19.02
2019-01-22T17:59:58.052Z,19.25
2019-01-22T18:02:34.638Z,17.50
2019-01-22T18:05:00.265Z,19.70
2019-01-22T18:07:30.311Z,20.12
2019-01-22T18:10:01.343Z,19.42
2019-01-22T18:12:31.372Z,18.30
2019-01-22T18:15:01.509Z,16.60
2019-01-22T18:17:31.411Z,17.25
2019-01-22T18:20:01.333Z,18.17
2019-01-22T18:22:32.709Z,17.85
2019-01-22T18:25:02.862Z,19.10
2019-01-22T18:27:34.177Z,16.62
2019-01-22T18:30:05.173Z,17.73
2019-01-22T18:32:35.227Z,19.87
2019-01-22T18:35:07.409Z,17.57
2019-01-22T18:37:37.731Z,19.90
2019-01-22T18:40:10.217Z,18.30
2019-01-22T18:42:40.207Z,18.20
2019-01-22T18:45:12.791Z,15.95
2019-01-22T18:47:42.836Z,19.73
2019-01-22T18:50:20.101Z,19.15
2019-01-22T18:52:50.168Z,17.40
2019-01-22T18:55:20.396Z,16.23
2019-01-22T18:57:50.387Z,18.50
2019-01-22T19:00:22.305Z,18.50
2019-01-22T19:02:53.131Z,18.85
2019-01-22T19:05:23.097Z,19.98
2019-01-22T19:07:53.403Z,18.10
2019-01-22T19:10:26.342Z,21.48
2019-01-22T19:13:02.259Z,17.12
2019-01-22T19:15:32.456Z,16.87
2019-01-22T19:18:02.680Z,17.57
2019-01-22T19:20:32.910Z,19.20
2019-01-22T19:23:03.382Z,18.52
2019-01-22T19:25:33.379Z,20.30
2019-01-22T19:28:03.485Z,18.30
2019-01-22T19:30:33.574Z,21.90
2019-01-22T19:33:03.753Z,19.35
2019-01-22T19:35:33.803Z,21.23
2019-01-22T19:38:03.966Z,16.73
2019-01-22T19:40:34.374Z,19.25
2019-01-22T19:43:05.136Z,17.02
2019-01-22T19:45:36.959Z,15.90
2019-01-22T19:48:07.115Z,16.60
2019-01-22T19:50:37.053Z,18.15
2019-01-22T19:53:07.626Z,20.77
2019-01-22T19:55:37.788Z,18.27
2019-01-22T19:58:08.320Z,21.57
2019-01-22T20:00:40.266Z,17.05
2019-01-22T20:03:11.048Z,19.57
2019-01-22T20:05:41.083Z,20.08
2019-01-22T20:08:11.640Z,18.82
2019-01-22T20:10:41.960Z,17.55
2019-01-22T20:13:12.073Z,20.52
2019-01-22T20:15:42.689Z,18.40
2019-01-22T20:18:12.580Z,19.40
2019-01-22T20:20:42.969Z,17.40
2019-01-22T20:23:13.660Z,17.82
2019-01-22T20:25:43.577Z,18.40
2019-01-22T20:28:13.974Z,15.40
2019-01-22T20:30:48.309Z,19.27
2019-01-22T20:33:16.427Z,17.48
2019-01-22T20:35:46.908Z,17.07
2019-01-22T20:38:17.539Z,20.05
2019-01-22T20:40:48.420Z,16.48
2019-01-22T20:43:18.413Z,16.67
2019-01-22T20:45:48.434Z,15.25
2019-01-22T20:48:19.119Z,17.77
2019-01-22T20:50:49.265Z,17.30
2019-01-22T20:53:19.176Z,18.67
2019-01-22T20:55:49.338Z,17.92
2019-01-22T20:58:20.046Z,18.90
2019-01-22T21:00:50.199Z,16.57
2019-01-22T21:03:20.156Z,13.45
2019-01-22T21:05:50.209Z,15.98
2019-01-22T21:08:20.177Z,17.82
2019-01-22T21:10:50.255Z,17.57
2019-01-22T21:13:20.939Z,20.90
2019-01-22T21:15:51.201Z,16.75
2019-01-22T21:18:22.262Z,18.12
2019-01-22T21:20:52.166Z,20.68
2019-01-22T21:23:22.168Z,18.57
2019-01-22T21:29:44.107Z,17.40
2019-01-22T21:32:14.452Z,16.73
2019-01-22T21:34:44.875Z,18.87
2019-01-22T21:37:15.179Z,17.87
2019-01-22T21:39:45.089Z,17.20
2019-01-22T21:42:15.003Z,15.45
2019-01-22T21:44:45.296Z,19.35
2019-01-22T21:47:15.510Z,18.37
2019-01-22T21:49:45.507Z,16.50
2019-01-22T21:52:15.492Z,16.73
2019-01-22T21:54:45.585Z,18.10
2019-01-22T21:57:15.649Z,15.60
2019-01-22T21:59:45.936Z,16.25
2019-01-22T22:02:16.204Z,18.50
2019-01-22T22:04:46.120Z,17.65
2019-01-22T22:07:16.021Z,17.95
2019-01-22T22:09:46.340Z,18.32
2019-01-22T22:12:16.613Z,16.97
2019-01-22T22:14:46.843Z,16.75
2019-01-22T22:17:16.938Z,16.37
2019-01-22T22:19:47.103Z,17.45
2019-01-22T22:22:17.514Z,18.57
2019-01-22T22:24:47.688Z,20.65
2019-01-22T22:31:09.436Z,18.77
2019-01-22T22:33:39.395Z,21.17
2019-01-22T22:36:09.308Z,18.27
2019-01-22T22:38:39.231Z,16.87
2019-01-22T22:41:09.462Z,18.85
2019-01-22T22:43:39.619Z,18.85
2019-01-22T22:46:09.913Z,21.93
2019-01-22T22:48:40.137Z,17.82
2019-01-22T22:51:10.971Z,17.62
2019-01-22T22:57:32.642Z,16.30
2019-01-22T23:00:03.636Z,17.00
2019-01-22T23:02:33.532Z,15.88
2019-01-22T23:08:36.949Z,17.27
2019-01-22T23:21:28.853Z,17.62
2019-01-22T23:31:18.206Z,17.32
2019-01-22T23:33:48.566Z,17.57
2019-01-22T23:36:21.714Z,16.87
2019-01-22T23:38:51.926Z,17.85
2019-01-22T23:41:22.209Z,18.10
2019-01-22T23:43:52.254Z,18.65
2019-01-22T23:46:22.791Z,15.70
2019-01-22T23:48:52.936Z,18.45
2019-01-22T23:51:22.860Z,20.68
2019-01-22T23:53:53.734Z,16.17
2019-01-22T23:56:23.658Z,19.42
2019-01-22T23:58:53.557Z,18.12
